sensor_id;sensor_type;location;lat;lon;timestamp;P1;durP1;ratioP1;P2;durP2;ratioP2
48040;SDS011;33815;48.386;11.738;2022-07-05T00:01:47;9.77;;;6.90;;
48040;SDS011;33815;48.386;11.738;2022-07-05T00:04:12;7.10;;;6.40;;
48040;SDS011;33815;48.386;11.738;2022-07-05T00:06:38;8.70;;;6.22;;
48040;SDS011;33815;48.386;11.738;2022-07-05T00:09:23;6.32;;;5.70;;
48040;SDS011;33815;48.386;11.738;2022-07-05T00:11:48;10.93;;;6.50;;
48040;SDS011;33815;48.386;11.738;2022-07-05T00:14:14;6.50;;;5.47;;
48040;SDS011;33815;48.386;11.738;2022-07-05T00:16:39;7.07;;;5.40;;
48040;SDS011;33815;48.386;11.738;2022-07-05T00:19:04;5.80;;;5.30;;
48040;SDS011;33815;48.386;11.738;2022-07-05T00:21:29;9.00;;;6.30;;
48040;SDS011;33815;48.386;11.738;2022-07-05T00:23:55;7.70;;;5.80;;
48040;SDS011;33815;48.386;11.738;2022-07-05T00:26:20;7.97;;;5.77;;
48040;SDS011;33815;48.386;11.738;2022-07-05T00:28:45;10.10;;;6.73;;
48040;SDS011;33815;48.386;11.738;2022-07-05T00:31:10;11.43;;;6.20;;
48040;SDS011;33815;48.386;11.738;2022-07-05T00:33:36;8.93;;;5.77;;
48040;SDS011;33815;48.386;11.738;2022-07-05T00:36:01;6.27;;;5.67;;
48040;SDS011;33815;48.386;11.738;2022-07-05T00:38:26;7.80;;;6.17;;
48040;SDS011;33815;48.386;11.738;2022-07-05T00:40:51;6.90;;;5.57;;
48040;SDS011;33815;48.386;11.738;2022-07-05T00:43:17;7.10;;;6.32;;
48040;SDS011;33815;48.386;11.738;2022-07-05T00:45:42;15.02;;;5.97;;
48040;SDS011;33815;48.386;11.738;2022-07-05T00:48:08;10.30;;;5.28;;
48040;SDS011;33815;48.386;11.738;2022-07-05T00:50:33;7.10;;;6.43;;
48040;SDS011;33815;48.386;11.738;2022-07-05T00:52:58;10.68;;;5.43;;
48040;SDS011;33815;48.386;11.738;2022-07-05T00:55:24;9.90;;;5.90;;
48040;SDS011;33815;48.386;11.738;2022-07-05T00:57:50;11.15;;;6.13;;
48040;SDS011;33815;48.386;11.738;2022-07-05T01:00:15;9.18;;;5.75;;
48040;SDS011;33815;48.386;11.738;2022-07-05T01:02:41;11.38;;;5.18;;
48040;SDS011;33815;48.386;11.738;2022-07-05T01:05:06;8.60;;;6.15;;
48040;SDS011;33815;48.386;11.738;2022-07-05T01:07:32;7.68;;;5.20;;
48040;SDS011;33815;48.386;11.738;2022-07-05T01:09:57;6.50;;;5.20;;
48040;SDS011;33815;48.386;11.738;2022-07-05T01:12:22;8.88;;;5.18;;
48040;SDS011;33815;48.386;11.738;2022-07-05T01:14:48;8.70;;;6.03;;
48040;SDS011;33815;48.386;11.738;2022-07-05T01:17:14;6.32;;;5.60;;
48040;SDS011;33815;48.386;11.738;2022-07-05T01:19:40;9.38;;;5.68;;
48040;SDS011;33815;48.386;11.738;2022-07-05T01:22:08;7.90;;;4.85;;
48040;SDS011;33815;48.386;11.738;2022-07-05T01:24:41;3.50;;;3.22;;
48040;SDS011;33815;48.386;11.738;2022-07-05T01:27:06;4.88;;;4.50;;
48040;SDS011;33815;48.386;11.738;2022-07-05T01:29:32;4.82;;;4.43;;
48040;SDS011;33815;48.386;11.738;2022-07-05T01:31:57;7.28;;;4.78;;
48040;SDS011;33815;48.386;11.738;2022-07-05T01:34:22;6.25;;;4.32;;
48040;SDS011;33815;48.386;11.738;2022-07-05T01:36:48;5.95;;;4.40;;
48040;SDS011;33815;48.386;11.738;2022-07-05T01:39:13;9.57;;;4.28;;
48040;SDS011;33815;48.386;11.738;2022-07-05T01:41:39;4.95;;;4.47;;
48040;SDS011;33815;48.386;11.738;2022-07-05T01:44:05;7.88;;;4.97;;
48040;SDS011;33815;48.386;11.738;2022-07-05T01:46:31;6.63;;;4.13;;
48040;SDS011;33815;48.386;11.738;2022-07-05T01:49:03;7.63;;;5.38;;
48040;SDS011;33815;48.386;11.738;2022-07-05T01:51:33;5.47;;;4.97;;
48040;SDS011;33815;48.386;11.738;2022-07-05T01:53:59;5.70;;;4.10;;
48040;SDS011;33815;48.386;11.738;2022-07-05T01:56:25;6.15;;;5.18;;
48040;SDS011;33815;48.386;11.738;2022-07-05T01:58:51;8.57;;;4.95;;
48040;SDS011;33815;48.386;11.738;2022-07-05T02:01:31;4.45;;;3.88;;
48040;SDS011;33815;48.386;11.738;2022-07-05T02:04:01;7.88;;;4.32;;
48040;SDS011;33815;48.386;11.738;2022-07-05T02:06:26;6.60;;;4.35;;
48040;SDS011;33815;48.386;11.738;2022-07-05T02:08:52;5.93;;;4.20;;
48040;SDS011;33815;48.386;11.738;2022-07-05T02:11:17;4.22;;;3.88;;
48040;SDS011;33815;48.386;11.738;2022-07-05T02:13:42;4.72;;;4.28;;
48040;SDS011;33815;48.386;11.738;2022-07-05T02:16:07;6.93;;;4.13;;
48040;SDS011;33815;48.386;11.738;2022-07-05T02:18:33;5.87;;;4.37;;
48040;SDS011;33815;48.386;11.738;2022-07-05T02:20:58;6.07;;;4.27;;
48040;SDS011;33815;48.386;11.738;2022-07-05T02:23:23;4.68;;;4.18;;
48040;SDS011;33815;48.386;11.738;2022-07-05T02:25:48;7.53;;;5.03;;
48040;SDS011;33815;48.386;11.738;2022-07-05T02:28:14;9.02;;;4.13;;
48040;SDS011;33815;48.386;11.738;2022-07-05T02:30:39;6.25;;;4.20;;
48040;SDS011;33815;48.386;11.738;2022-07-05T02:33:04;5.40;;;4.13;;
48040;SDS011;33815;48.386;11.738;2022-07-05T02:35:30;5.57;;;4.35;;
48040;SDS011;33815;48.386;11.738;2022-07-05T02:37:55;5.95;;;4.47;;
48040;SDS011;33815;48.386;11.738;2022-07-05T02:40:20;5.15;;;4.47;;
48040;SDS011;33815;48.386;11.738;2022-07-05T02:42:46;7.40;;;5.18;;
48040;SDS011;33815;48.386;11.738;2022-07-05T02:45:11;7.57;;;3.90;;
48040;SDS011;33815;48.386;11.738;2022-07-05T02:47:36;7.72;;;5.20;;
48040;SDS011;33815;48.386;11.738;2022-07-05T02:50:05;5.10;;;4.25;;
48040;SDS011;33815;48.386;11.738;2022-07-05T02:52:34;7.05;;;4.78;;
48040;SDS011;33815;48.386;11.738;2022-07-05T02:55:01;5.53;;;4.55;;
48040;SDS011;33815;48.386;11.738;2022-07-05T02:57:29;6.93;;;4.65;;
48040;SDS011;33815;48.386;11.738;2022-07-05T02:59:55;5.38;;;4.32;;
48040;SDS011;33815;48.386;11.738;2022-07-05T03:02:21;7.40;;;4.25;;
48040;SDS011;33815;48.386;11.738;2022-07-05T03:04:47;4.88;;;4.40;;
48040;SDS011;33815;48.386;11.738;2022-07-05T03:07:13;8.50;;;4.25;;
48040;SDS011;33815;48.386;11.738;2022-07-05T03:09:38;4.80;;;4.22;;
48040;SDS011;33815;48.386;11.738;2022-07-05T03:12:04;7.53;;;4.20;;
48040;SDS011;33815;48.386;11.738;2022-07-05T03:14:30;6.10;;;3.78;;
48040;SDS011;33815;48.386;11.738;2022-07-05T03:16:55;14.15;;;4.72;;
48040;SDS011;33815;48.386;11.738;2022-07-05T03:19:20;6.97;;;4.18;;
48040;SDS011;33815;48.386;11.738;2022-07-05T03:21:45;8.63;;;4.13;;
48040;SDS011;33815;48.386;11.738;2022-07-05T03:24:11;5.63;;;4.13;;
48040;SDS011;33815;48.386;11.738;2022-07-05T03:26:36;6.40;;;3.90;;
48040;SDS011;33815;48.386;11.738;2022-07-05T03:29:01;6.88;;;4.03;;
48040;SDS011;33815;48.386;11.738;2022-07-05T03:31:27;8.82;;;4.18;;
48040;SDS011;33815;48.386;11.738;2022-07-05T03:33:52;6.55;;;4.38;;
48040;SDS011;33815;48.386;11.738;2022-07-05T03:36:17;7.47;;;3.97;;
48040;SDS011;33815;48.386;11.738;2022-07-05T03:38:43;11.27;;;5.10;;
48040;SDS011;33815;48.386;11.738;2022-07-05T03:41:08;4.57;;;4.10;;
48040;SDS011;33815;48.386;11.738;2022-07-05T03:43:33;9.83;;;4.17;;
48040;SDS011;33815;48.386;11.738;2022-07-05T03:45:59;10.30;;;4.43;;
48040;SDS011;33815;48.386;11.738;2022-07-05T03:48:24;6.78;;;4.15;;
48040;SDS011;33815;48.386;11.738;2022-07-05T03:50:49;6.20;;;4.27;;
48040;SDS011;33815;48.386;11.738;2022-07-05T03:53:14;7.33;;;4.10;;
48040;SDS011;33815;48.386;11.738;2022-07-05T03:55:40;8.60;;;4.15;;
48040;SDS011;33815;48.386;11.738;2022-07-05T03:58:05;6.53;;;3.60;;
48040;SDS011;33815;48.386;11.738;2022-07-05T04:00:31;6.63;;;3.77;;
48040;SDS011;33815;48.386;11.738;2022-07-05T04:02:57;4.35;;;3.95;;
48040;SDS011;33815;48.386;11.738;2022-07-05T04:05:22;9.25;;;3.88;;
48040;SDS011;33815;48.386;11.738;2022-07-05T04:07:52;7.32;;;3.95;;
48040;SDS011;33815;48.386;11.738;2022-07-05T04:10:20;7.03;;;4.00;;
48040;SDS011;33815;48.386;11.738;2022-07-05T04:12:46;9.20;;;4.25;;
48040;SDS011;33815;48.386;11.738;2022-07-05T04:15:12;7.78;;;3.75;;
48040;SDS011;33815;48.386;11.738;2022-07-05T04:17:55;8.68;;;3.70;;
48040;SDS011;33815;48.386;11.738;2022-07-05T04:20:21;6.40;;;3.72;;
48040;SDS011;33815;48.386;11.738;2022-07-05T04:22:48;4.82;;;4.20;;
48040;SDS011;33815;48.386;11.738;2022-07-05T04:25:14;7.28;;;4.13;;
48040;SDS011;33815;48.386;11.738;2022-07-05T04:27:50;6.35;;;3.90;;
48040;SDS011;33815;48.386;11.738;2022-07-05T04:30:16;9.80;;;3.80;;
48040;SDS011;33815;48.386;11.738;2022-07-05T04:32:43;8.02;;;4.97;;
48040;SDS011;33815;48.386;11.738;2022-07-05T04:35:09;4.25;;;3.72;;
48040;SDS011;33815;48.386;11.738;2022-07-05T04:37:35;6.30;;;3.92;;
48040;SDS011;33815;48.386;11.738;2022-07-05T04:40:01;5.93;;;4.32;;
48040;SDS011;33815;48.386;11.738;2022-07-05T04:42:27;5.68;;;3.83;;
48040;SDS011;33815;48.386;11.738;2022-07-05T04:44:52;11.15;;;4.53;;
48040;SDS011;33815;48.386;11.738;2022-07-05T04:47:17;7.70;;;4.10;;
48040;SDS011;33815;48.386;11.738;2022-07-05T04:49:43;5.30;;;4.10;;
48040;SDS011;33815;48.386;11.738;2022-07-05T04:52:08;7.68;;;3.97;;
48040;SDS011;33815;48.386;11.738;2022-07-05T04:54:35;6.47;;;4.32;;
48040;SDS011;33815;48.386;11.738;2022-07-05T04:57:01;9.20;;;4.32;;
48040;SDS011;33815;48.386;11.738;2022-07-05T04:59:27;5.65;;;4.65;;
48040;SDS011;33815;48.386;11.738;2022-07-05T05:01:52;6.90;;;4.35;;
48040;SDS011;33815;48.386;11.738;2022-07-05T05:04:18;5.67;;;4.47;;
48040;SDS011;33815;48.386;11.738;2022-07-05T05:06:43;10.38;;;5.53;;
48040;SDS011;33815;48.386;11.738;2022-07-05T05:09:08;9.27;;;3.97;;
48040;SDS011;33815;48.386;11.738;2022-07-05T05:11:34;6.93;;;3.88;;
48040;SDS011;33815;48.386;11.738;2022-07-05T05:13:59;13.03;;;4.80;;
48040;SDS011;33815;48.386;11.738;2022-07-05T05:16:24;7.77;;;4.40;;
48040;SDS011;33815;48.386;11.738;2022-07-05T05:18:49;7.77;;;4.53;;
48040;SDS011;33815;48.386;11.738;2022-07-05T05:21:15;10.00;;;4.77;;
48040;SDS011;33815;48.386;11.738;2022-07-05T05:23:40;12.25;;;4.78;;
48040;SDS011;33815;48.386;11.738;2022-07-05T05:26:05;6.00;;;4.43;;
48040;SDS011;33815;48.386;11.738;2022-07-05T05:28:31;6.17;;;5.17;;
48040;SDS011;33815;48.386;11.738;2022-07-05T05:30:56;7.70;;;4.93;;
48040;SDS011;33815;48.386;11.738;2022-07-05T05:33:21;6.72;;;5.00;;
48040;SDS011;33815;48.386;11.738;2022-07-05T05:35:46;7.63;;;5.20;;
48040;SDS011;33815;48.386;11.738;2022-07-05T05:38:12;5.53;;;4.43;;
48040;SDS011;33815;48.386;11.738;2022-07-05T05:40:37;7.93;;;4.53;;
48040;SDS011;33815;48.386;11.738;2022-07-05T05:43:03;5.57;;;4.47;;
48040;SDS011;33815;48.386;11.738;2022-07-05T05:45:29;12.57;;;4.68;;
48040;SDS011;33815;48.386;11.738;2022-07-05T05:47:55;11.50;;;4.80;;
48040;SDS011;33815;48.386;11.738;2022-07-05T05:50:23;15.90;;;5.63;;
48040;SDS011;33815;48.386;11.738;2022-07-05T05:52:55;8.75;;;5.05;;
48040;SDS011;33815;48.386;11.738;2022-07-05T05:55:21;6.13;;;4.63;;
48040;SDS011;33815;48.386;11.738;2022-07-05T05:57:48;9.80;;;5.28;;
48040;SDS011;33815;48.386;11.738;2022-07-05T06:00:14;10.23;;;4.90;;
48040;SDS011;33815;48.386;11.738;2022-07-05T06:02:40;7.93;;;4.95;;
48040;SDS011;33815;48.386;11.738;2022-07-05T06:05:06;9.63;;;4.20;;
48040;SDS011;33815;48.386;11.738;2022-07-05T06:07:42;6.68;;;5.07;;
48040;SDS011;33815;48.386;11.738;2022-07-05T06:10:09;10.38;;;4.80;;
48040;SDS011;33815;48.386;11.738;2022-07-05T06:12:34;16.27;;;5.87;;
48040;SDS011;33815;48.386;11.738;2022-07-05T06:14:59;15.25;;;5.22;;
48040;SDS011;33815;48.386;11.738;2022-07-05T06:17:24;7.33;;;4.40;;
48040;SDS011;33815;48.386;11.738;2022-07-05T06:19:50;5.15;;;4.18;;
48040;SDS011;33815;48.386;11.738;2022-07-05T06:22:15;5.63;;;4.33;;
48040;SDS011;33815;48.386;11.738;2022-07-05T06:24:40;7.00;;;4.35;;
48040;SDS011;33815;48.386;11.738;2022-07-05T06:27:06;5.85;;;3.85;;
48040;SDS011;33815;48.386;11.738;2022-07-05T06:29:31;9.90;;;4.95;;
48040;SDS011;33815;48.386;11.738;2022-07-05T06:31:56;10.15;;;3.88;;
48040;SDS011;33815;48.386;11.738;2022-07-05T06:34:21;5.88;;;4.32;;
48040;SDS011;33815;48.386;11.738;2022-07-05T06:36:47;5.83;;;3.43;;
48040;SDS011;33815;48.386;11.738;2022-07-05T06:39:12;5.28;;;3.38;;
48040;SDS011;33815;48.386;11.738;2022-07-05T06:41:37;4.07;;;3.37;;
48040;SDS011;33815;48.386;11.738;2022-07-05T06:44:03;5.13;;;3.07;;
48040;SDS011;33815;48.386;11.738;2022-07-05T06:46:28;5.53;;;3.28;;
48040;SDS011;33815;48.386;11.738;2022-07-05T06:48:53;8.47;;;3.10;;
48040;SDS011;33815;48.386;11.738;2022-07-05T06:51:19;4.23;;;3.07;;
48040;SDS011;33815;48.386;11.738;2022-07-05T06:53:44;6.72;;;3.17;;
48040;SDS011;33815;48.386;11.738;2022-07-05T06:56:09;8.13;;;3.50;;
48040;SDS011;33815;48.386;11.738;2022-07-05T06:58:34;6.53;;;3.17;;
48040;SDS011;33815;48.386;11.738;2022-07-05T07:01:00;3.97;;;3.30;;
48040;SDS011;33815;48.386;11.738;2022-07-05T07:03:25;3.57;;;2.97;;
48040;SDS011;33815;48.386;11.738;2022-07-05T07:05:50;7.93;;;3.37;;
48040;SDS011;33815;48.386;11.738;2022-07-05T07:08:15;5.10;;;3.50;;
48040;SDS011;33815;48.386;11.738;2022-07-05T07:10:59;3.78;;;2.50;;
48040;SDS011;33815;48.386;11.738;2022-07-05T07:13:24;4.53;;;2.57;;
48040;SDS011;33815;48.386;11.738;2022-07-05T07:15:50;3.87;;;2.90;;
48040;SDS011;33815;48.386;11.738;2022-07-05T07:18:15;6.83;;;3.03;;
48040;SDS011;33815;48.386;11.738;2022-07-05T07:20:41;3.53;;;2.42;;
48040;SDS011;33815;48.386;11.738;2022-07-05T07:23:06;2.33;;;1.85;;
48040;SDS011;33815;48.386;11.738;2022-07-05T07:25:32;3.03;;;2.03;;
48040;SDS011;33815;48.386;11.738;2022-07-05T07:27:57;2.40;;;2.28;;
48040;SDS011;33815;48.386;11.738;2022-07-05T07:30:26;3.22;;;2.20;;
48040;SDS011;33815;48.386;11.738;2022-07-05T07:32:54;1.70;;;1.65;;
48040;SDS011;33815;48.386;11.738;2022-07-05T07:35:20;2.25;;;2.00;;
48040;SDS011;33815;48.386;11.738;2022-07-05T07:37:46;4.40;;;1.75;;
48040;SDS011;33815;48.386;11.738;2022-07-05T07:40:12;2.45;;;2.10;;
48040;SDS011;33815;48.386;11.738;2022-07-05T07:42:38;8.35;;;2.13;;
48040;SDS011;33815;48.386;11.738;2022-07-05T07:45:03;1.90;;;1.77;;
48040;SDS011;33815;48.386;11.738;2022-07-05T07:47:30;3.10;;;1.95;;
48040;SDS011;33815;48.386;11.738;2022-07-05T07:49:56;11.20;;;2.20;;
48040;SDS011;33815;48.386;11.738;2022-07-05T07:52:21;4.27;;;2.20;;
48040;SDS011;33815;48.386;11.738;2022-07-05T07:54:47;5.60;;;2.17;;
48040;SDS011;33815;48.386;11.738;2022-07-05T07:57:12;2.70;;;1.85;;
48040;SDS011;33815;48.386;11.738;2022-07-05T07:59:37;2.33;;;1.80;;
48040;SDS011;33815;48.386;11.738;2022-07-05T08:02:03;4.28;;;1.88;;
48040;SDS011;33815;48.386;11.738;2022-07-05T08:04:28;3.08;;;2.10;;
48040;SDS011;33815;48.386;11.738;2022-07-05T08:06:54;6.40;;;2.05;;
48040;SDS011;33815;48.386;11.738;2022-07-05T08:09:19;3.35;;;2.10;;
48040;SDS011;33815;48.386;11.738;2022-07-05T08:11:45;4.60;;;1.80;;
48040;SDS011;33815;48.386;11.738;2022-07-05T08:14:11;5.80;;;1.63;;
48040;SDS011;33815;48.386;11.738;2022-07-05T08:16:37;3.45;;;1.92;;
48040;SDS011;33815;48.386;11.738;2022-07-05T08:19:02;4.10;;;1.63;;
48040;SDS011;33815;48.386;11.738;2022-07-05T08:21:46;3.33;;;1.50;;
48040;SDS011;33815;48.386;11.738;2022-07-05T08:24:13;5.68;;;1.67;;
48040;SDS011;33815;48.386;11.738;2022-07-05T08:26:39;4.82;;;1.50;;
48040;SDS011;33815;48.386;11.738;2022-07-05T08:29:06;3.60;;;2.05;;
48040;SDS011;33815;48.386;11.738;2022-07-05T08:31:34;5.18;;;1.48;;
48040;SDS011;33815;48.386;11.738;2022-07-05T08:34:01;7.22;;;2.35;;
48040;SDS011;33815;48.386;11.738;2022-07-05T08:36:27;3.35;;;1.65;;
48040;SDS011;33815;48.386;11.738;2022-07-05T08:38:53;2.83;;;1.67;;
48040;SDS011;33815;48.386;11.738;2022-07-05T08:41:19;2.15;;;1.50;;
48040;SDS011;33815;48.386;11.738;2022-07-05T08:43:47;8.65;;;1.58;;
48040;SDS011;33815;48.386;11.738;2022-07-05T08:46:14;2.58;;;1.63;;
48040;SDS011;33815;48.386;11.738;2022-07-05T08:48:41;4.55;;;1.75;;
48040;SDS011;33815;48.386;11.738;2022-07-05T08:51:12;3.22;;;1.48;;
48040;SDS011;33815;48.386;11.738;2022-07-05T08:53:42;3.10;;;1.65;;
48040;SDS011;33815;48.386;11.738;2022-07-05T08:56:09;4.75;;;1.20;;
48040;SDS011;33815;48.386;11.738;2022-07-05T08:58:36;3.10;;;2.03;;
48040;SDS011;33815;48.386;11.738;2022-07-05T09:01:02;4.97;;;1.20;;
48040;SDS011;33815;48.386;11.738;2022-07-05T09:03:31;3.60;;;1.50;;
48040;SDS011;33815;48.386;11.738;2022-07-05T09:05:59;2.03;;;1.02;;
48040;SDS011;33815;48.386;11.738;2022-07-05T09:08:25;2.80;;;1.10;;
48040;SDS011;33815;48.386;11.738;2022-07-05T09:10:54;1.00;;;0.90;;
48040;SDS011;33815;48.386;11.738;2022-07-05T09:13:19;2.17;;;1.15;;
48040;SDS011;33815;48.386;11.738;2022-07-05T09:15:45;1.23;;;1.13;;
48040;SDS011;33815;48.386;11.738;2022-07-05T09:18:11;3.28;;;1.35;;
48040;SDS011;33815;48.386;11.738;2022-07-05T09:20:36;3.63;;;1.20;;
48040;SDS011;33815;48.386;11.738;2022-07-05T09:23:02;2.03;;;1.40;;
48040;SDS011;33815;48.386;11.738;2022-07-05T09:25:28;1.65;;;0.80;;
48040;SDS011;33815;48.386;11.738;2022-07-05T09:27:55;3.30;;;0.90;;
48040;SDS011;33815;48.386;11.738;2022-07-05T09:35:30;1.52;;;1.00;;
48040;SDS011;33815;48.386;11.738;2022-07-05T09:37:56;2.63;;;0.95;;
48040;SDS011;33815;48.386;11.738;2022-07-05T09:40:22;2.53;;;0.85;;
48040;SDS011;33815;48.386;11.738;2022-07-05T09:42:47;2.47;;;1.52;;
48040;SDS011;33815;48.386;11.738;2022-07-05T09:45:12;3.13;;;1.00;;
48040;SDS011;33815;48.386;11.738;2022-07-05T09:47:47;5.03;;;0.80;;
48040;SDS011;33815;48.386;11.738;2022-07-05T09:50:12;1.00;;;0.90;;
48040;SDS011;33815;48.386;11.738;2022-07-05T09:52:41;1.55;;;0.98;;
48040;SDS011;33815;48.386;11.738;2022-07-05T09:55:11;3.60;;;0.90;;
48040;SDS011;33815;48.386;11.738;2022-07-05T09:57:37;2.40;;;0.95;;
48040;SDS011;33815;48.386;11.738;2022-07-05T10:00:19;0.73;;;0.73;;
48040;SDS011;33815;48.386;11.738;2022-07-05T10:02:50;0.75;;;0.70;;
48040;SDS011;33815;48.386;11.738;2022-07-05T10:05:18;0.70;;;0.70;;
48040;SDS011;33815;48.386;11.738;2022-07-05T10:07:49;4.57;;;0.80;;
48040;SDS011;33815;48.386;11.738;2022-07-05T10:10:17;1.40;;;0.70;;
48040;SDS011;33815;48.386;11.738;2022-07-05T10:12:48;2.75;;;0.80;;
48040;SDS011;33815;48.386;11.738;2022-07-05T10:15:16;2.00;;;0.95;;
48040;SDS011;33815;48.386;11.738;2022-07-05T10:17:44;1.05;;;0.90;;
48040;SDS011;33815;48.386;11.738;2022-07-05T10:20:34;1.00;;;0.60;;
48040;SDS011;33815;48.386;11.738;2022-07-05T10:23:08;1.25;;;0.82;;
48040;SDS011;33815;48.386;11.738;2022-07-05T10:25:47;1.63;;;0.65;;
48040;SDS011;33815;48.386;11.738;2022-07-05T10:28:15;1.08;;;0.98;;
48040;SDS011;33815;48.386;11.738;2022-07-05T10:30:43;1.45;;;0.88;;
48040;SDS011;33815;48.386;11.738;2022-07-05T10:33:10;2.42;;;0.70;;
48040;SDS011;33815;48.386;11.738;2022-07-05T10:35:39;0.77;;;0.65;;
48040;SDS011;33815;48.386;11.738;2022-07-05T10:38:07;0.88;;;0.80;;
48040;SDS011;33815;48.386;11.738;2022-07-05T10:40:34;2.17;;;0.60;;
48040;SDS011;33815;48.386;11.738;2022-07-05T10:43:00;2.35;;;0.90;;
48040;SDS011;33815;48.386;11.738;2022-07-05T10:45:31;0.65;;;0.63;;
48040;SDS011;33815;48.386;11.738;2022-07-05T10:50:47;3.35;;;1.25;;
48040;SDS011;33815;48.386;11.738;2022-07-05T10:58:37;1.35;;;0.82;;
48040;SDS011;33815;48.386;11.738;2022-07-05T11:03:38;3.63;;;1.20;;
48040;SDS011;33815;48.386;11.738;2022-07-05T11:06:05;2.67;;;1.02;;
48040;SDS011;33815;48.386;11.738;2022-07-05T11:11:26;0.63;;;0.63;;
48040;SDS011;33815;48.386;11.738;2022-07-05T11:13:59;0.90;;;0.90;;
48040;SDS011;33815;48.386;11.738;2022-07-05T11:19:11;0.80;;;0.80;;
48040;SDS011;33815;48.386;11.738;2022-07-05T11:21:39;1.35;;;1.02;;
48040;SDS011;33815;48.386;11.738;2022-07-05T11:26:51;2.15;;;1.30;;
48040;SDS011;33815;48.386;11.738;2022-07-05T11:34:53;2.95;;;0.90;;
48040;SDS011;33815;48.386;11.738;2022-07-05T11:42:49;2.63;;;0.98;;
48040;SDS011;33815;48.386;11.738;2022-07-05T11:45:15;7.32;;;1.35;;
48040;SDS011;33815;48.386;11.738;2022-07-05T11:47:41;2.75;;;0.80;;
48040;SDS011;33815;48.386;11.738;2022-07-05T11:50:07;3.70;;;1.23;;
48040;SDS011;33815;48.386;11.738;2022-07-05T11:52:34;2.63;;;1.38;;
48040;SDS011;33815;48.386;11.738;2022-07-05T11:55:01;0.65;;;0.60;;
48040;SDS011;33815;48.386;11.738;2022-07-05T11:57:28;4.22;;;1.30;;
48040;SDS011;33815;48.386;11.738;2022-07-05T11:59:54;1.53;;;0.90;;
48040;SDS011;33815;48.386;11.738;2022-07-05T12:02:19;2.30;;;0.88;;
48040;SDS011;33815;48.386;11.738;2022-07-05T12:04:48;1.52;;;0.93;;
48040;SDS011;33815;48.386;11.738;2022-07-05T12:07:25;3.50;;;1.35;;
48040;SDS011;33815;48.386;11.738;2022-07-05T12:09:58;5.88;;;1.00;;
48040;SDS011;33815;48.386;11.738;2022-07-05T12:12:43;2.67;;;1.02;;
48040;SDS011;33815;48.386;11.738;2022-07-05T12:15:18;1.00;;;0.63;;
48040;SDS011;33815;48.386;11.738;2022-07-05T12:17:46;1.55;;;1.00;;
48040;SDS011;33815;48.386;11.738;2022-07-05T12:20:14;1.50;;;1.00;;
48040;SDS011;33815;48.386;11.738;2022-07-05T12:22:45;2.08;;;1.33;;
48040;SDS011;33815;48.386;11.738;2022-07-05T12:25:29;1.45;;;1.00;;
48040;SDS011;33815;48.386;11.738;2022-07-05T12:27:56;3.58;;;0.90;;
48040;SDS011;33815;48.386;11.738;2022-07-05T12:30:23;2.30;;;0.73;;
48040;SDS011;33815;48.386;11.738;2022-07-05T12:33:02;0.88;;;0.70;;
48040;SDS011;33815;48.386;11.738;2022-07-05T12:35:29;1.02;;;0.60;;
48040;SDS011;33815;48.386;11.738;2022-07-05T12:37:55;1.20;;;0.70;;
48040;SDS011;33815;48.386;11.738;2022-07-05T12:40:22;2.08;;;1.10;;
48040;SDS011;33815;48.386;11.738;2022-07-05T12:42:59;1.58;;;0.98;;
48040;SDS011;33815;48.386;11.738;2022-07-05T12:45:25;1.95;;;0.82;;
48040;SDS011;33815;48.386;11.738;2022-07-05T12:47:52;0.75;;;0.75;;
48040;SDS011;33815;48.386;11.738;2022-07-05T12:50:24;1.90;;;0.80;;
48040;SDS011;33815;48.386;11.738;2022-07-05T12:52:58;1.63;;;0.85;;
48040;SDS011;33815;48.386;11.738;2022-07-05T12:55:49;1.60;;;1.20;;
48040;SDS011;33815;48.386;11.738;2022-07-05T12:59:16;1.33;;;1.02;;
48040;SDS011;33815;48.386;11.738;2022-07-05T13:01:30;0.82;;;0.82;;
48040;SDS011;33815;48.386;11.738;2022-07-05T13:09:29;0.75;;;0.73;;
48040;SDS011;33815;48.386;11.738;2022-07-05T13:12:11;3.80;;;1.08;;
48040;SDS011;33815;48.386;11.738;2022-07-05T13:14:45;5.07;;;0.82;;
48040;SDS011;33815;48.386;11.738;2022-07-05T13:17:12;2.65;;;0.70;;
48040;SDS011;33815;48.386;11.738;2022-07-05T13:19:39;2.75;;;0.80;;
48040;SDS011;33815;48.386;11.738;2022-07-05T13:22:06;1.33;;;1.05;;
48040;SDS011;33815;48.386;11.738;2022-07-05T13:24:32;1.13;;;0.65;;
48040;SDS011;33815;48.386;11.738;2022-07-05T13:26:57;2.50;;;0.77;;
48040;SDS011;33815;48.386;11.738;2022-07-05T13:29:22;2.50;;;0.70;;
48040;SDS011;33815;48.386;11.738;2022-07-05T13:31:48;0.60;;;0.60;;
48040;SDS011;33815;48.386;11.738;2022-07-05T13:34:13;1.23;;;0.80;;
48040;SDS011;33815;48.386;11.738;2022-07-05T13:36:39;2.80;;;0.95;;
48040;SDS011;33815;48.386;11.738;2022-07-05T13:39:04;1.08;;;0.80;;
48040;SDS011;33815;48.386;11.738;2022-07-05T13:41:29;1.60;;;1.07;;
48040;SDS011;33815;48.386;11.738;2022-07-05T13:43:56;4.75;;;0.60;;
48040;SDS011;33815;48.386;11.738;2022-07-05T13:46:22;3.33;;;0.95;;
48040;SDS011;33815;48.386;11.738;2022-07-05T13:48:47;1.20;;;0.70;;
48040;SDS011;33815;48.386;11.738;2022-07-05T13:51:12;3.27;;;0.70;;
48040;SDS011;33815;48.386;11.738;2022-07-05T13:53:37;1.50;;;0.73;;
48040;SDS011;33815;48.386;11.738;2022-07-05T13:56:04;1.10;;;0.47;;
48040;SDS011;33815;48.386;11.738;2022-07-05T13:58:30;0.93;;;0.77;;
48040;SDS011;33815;48.386;11.738;2022-07-05T14:00:55;0.95;;;0.70;;
48040;SDS011;33815;48.386;11.738;2022-07-05T14:03:20;0.67;;;0.60;;
48040;SDS011;33815;48.386;11.738;2022-07-05T14:05:46;0.77;;;0.70;;
48040;SDS011;33815;48.386;11.738;2022-07-05T14:08:11;1.77;;;0.73;;
48040;SDS011;33815;48.386;11.738;2022-07-05T14:10:37;1.65;;;0.70;;
48040;SDS011;33815;48.386;11.738;2022-07-05T14:13:03;2.38;;;0.90;;
48040;SDS011;33815;48.386;11.738;2022-07-05T14:15:28;0.43;;;0.43;;
48040;SDS011;33815;48.386;11.738;2022-07-05T14:17:53;0.68;;;0.40;;
48040;SDS011;33815;48.386;11.738;2022-07-05T14:20:19;2.63;;;0.87;;
48040;SDS011;33815;48.386;11.738;2022-07-05T14:22:44;2.30;;;0.88;;
48040;SDS011;33815;48.386;11.738;2022-07-05T14:25:09;2.07;;;0.83;;
48040;SDS011;33815;48.386;11.738;2022-07-05T14:27:35;3.57;;;0.80;;
48040;SDS011;33815;48.386;11.738;2022-07-05T14:30:00;3.38;;;0.70;;
48040;SDS011;33815;48.386;11.738;2022-07-05T14:32:27;4.80;;;0.60;;
48040;SDS011;33815;48.386;11.738;2022-07-05T14:34:52;4.30;;;0.80;;
48040;SDS011;33815;48.386;11.738;2022-07-05T14:37:18;2.17;;;0.80;;
48040;SDS011;33815;48.386;11.738;2022-07-05T14:39:45;0.95;;;0.70;;
48040;SDS011;33815;48.386;11.738;2022-07-05T14:42:10;2.45;;;0.60;;
48040;SDS011;33815;48.386;11.738;2022-07-05T14:44:36;2.60;;;0.70;;
48040;SDS011;33815;48.386;11.738;2022-07-05T14:47:01;5.30;;;1.57;;
48040;SDS011;33815;48.386;11.738;2022-07-05T14:49:26;3.13;;;0.60;;
48040;SDS011;33815;48.386;11.738;2022-07-05T14:51:51;2.10;;;0.60;;
48040;SDS011;33815;48.386;11.738;2022-07-05T14:54:17;1.83;;;0.83;;
48040;SDS011;33815;48.386;11.738;2022-07-05T14:56:42;1.10;;;0.90;;
48040;SDS011;33815;48.386;11.738;2022-07-05T14:59:07;1.23;;;0.63;;
48040;SDS011;33815;48.386;11.738;2022-07-05T15:01:32;2.87;;;0.70;;
48040;SDS011;33815;48.386;11.738;2022-07-05T15:03:58;0.70;;;0.70;;
48040;SDS011;33815;48.386;11.738;2022-07-05T15:06:23;0.90;;;0.70;;
48040;SDS011;33815;48.386;11.738;2022-07-05T15:08:48;0.80;;;0.80;;
48040;SDS011;33815;48.386;11.738;2022-07-05T15:11:13;4.47;;;0.87;;
48040;SDS011;33815;48.386;11.738;2022-07-05T15:13:39;2.88;;;0.70;;